sensor_id;sensor_type;location;lat;lon;timestamp;P1;durP1;ratioP1;P2;durP2;ratioP2
32347;SDS011;18821;44.800;10.326;2022-11-25T00:01:04;19.13;;;11.77;;
32347;SDS011;18821;44.800;10.326;2022-11-25T00:03:31;21.52;;;10.68;;
32347;SDS011;18821;44.800;10.326;2022-11-25T00:06:06;18.45;;;10.38;;
32347;SDS011;18821;44.800;10.326;2022-11-25T00:08:43;27.30;;;12.35;;
32347;SDS011;18821;44.800;10.326;2022-11-25T00:11:11;22.92;;;11.70;;
32347;SDS011;18821;44.800;10.326;2022-11-25T00:13:38;21.67;;;11.93;;
32347;SDS011;18821;44.800;10.326;2022-11-25T00:16:06;25.45;;;11.68;;
32347;SDS011;18821;44.800;10.326;2022-11-25T00:18:33;23.58;;;11.13;;
32347;SDS011;18821;44.800;10.326;2022-11-25T00:21:04;19.33;;;11.15;;
32347;SDS011;18821;44.800;10.326;2022-11-25T00:23:31;28.45;;;11.57;;
32347;SDS011;18821;44.800;10.326;2022-11-25T00:26:08;27.27;;;11.82;;
32347;SDS011;18821;44.800;10.326;2022-11-25T00:28:39;27.40;;;12.30;;
32347;SDS011;18821;44.800;10.326;2022-11-25T00:31:08;23.95;;;13.05;;
32347;SDS011;18821;44.800;10.326;2022-11-25T00:33:45;24.85;;;12.35;;
32347;SDS011;18821;44.800;10.326;2022-11-25T00:36:13;32.20;;;16.98;;
32347;SDS011;18821;44.800;10.326;2022-11-25T00:38:45;34.63;;;19.15;;
32347;SDS011;18821;44.800;10.326;2022-11-25T00:41:11;35.35;;;19.65;;
32347;SDS011;18821;44.800;10.326;2022-11-25T00:43:56;33.05;;;19.50;;
32347;SDS011;18821;44.800;10.326;2022-11-25T00:46:41;41.35;;;19.80;;
32347;SDS011;18821;44.800;10.326;2022-11-25T00:49:07;35.88;;;19.73;;
32347;SDS011;18821;44.800;10.326;2022-11-25T00:51:33;47.00;;;21.77;;
32347;SDS011;18821;44.800;10.326;2022-11-25T00:54:00;42.70;;;19.77;;
32347;SDS011;18821;44.800;10.326;2022-11-25T00:56:27;34.80;;;18.85;;
32347;SDS011;18821;44.800;10.326;2022-11-25T00:58:54;35.85;;;18.67;;
32347;SDS011;18821;44.800;10.326;2022-11-25T01:01:21;39.72;;;19.20;;
32347;SDS011;18821;44.800;10.326;2022-11-25T01:03:50;37.25;;;19.92;;
32347;SDS011;18821;44.800;10.326;2022-11-25T01:06:16;36.42;;;19.10;;
32347;SDS011;18821;44.800;10.326;2022-11-25T01:08:43;27.98;;;16.02;;
32347;SDS011;18821;44.800;10.326;2022-11-25T01:11:11;28.35;;;14.10;;
32347;SDS011;18821;44.800;10.326;2022-11-25T01:13:39;32.17;;;15.38;;
32347;SDS011;18821;44.800;10.326;2022-11-25T01:16:06;21.75;;;12.85;;
32347;SDS011;18821;44.800;10.326;2022-11-25T01:18:34;23.77;;;11.85;;
32347;SDS011;18821;44.800;10.326;2022-11-25T01:21:07;19.05;;;11.80;;
32347;SDS011;18821;44.800;10.326;2022-11-25T01:23:44;20.73;;;10.80;;
32347;SDS011;18821;44.800;10.326;2022-11-25T01:26:13;19.52;;;10.80;;
32347;SDS011;18821;44.800;10.326;2022-11-25T01:28:42;17.90;;;10.60;;
32347;SDS011;18821;44.800;10.326;2022-11-25T01:31:11;26.73;;;12.15;;
32347;SDS011;18821;44.800;10.326;2022-11-25T01:33:42;20.42;;;11.15;;
32347;SDS011;18821;44.800;10.326;2022-11-25T01:36:10;19.73;;;11.32;;
32347;SDS011;18821;44.800;10.326;2022-11-25T01:38:41;20.08;;;10.90;;
32347;SDS011;18821;44.800;10.326;2022-11-25T01:41:10;21.77;;;9.85;;
32347;SDS011;18821;44.800;10.326;2022-11-25T01:43:37;17.20;;;9.55;;
32347;SDS011;18821;44.800;10.326;2022-11-25T01:48:56;18.73;;;11.23;;
32347;SDS011;18821;44.800;10.326;2022-11-25T01:51:33;25.10;;;11.13;;
32347;SDS011;18821;44.800;10.326;2022-11-25T01:54:08;25.73;;;11.43;;
32347;SDS011;18821;44.800;10.326;2022-11-25T01:56:41;17.15;;;10.20;;
32347;SDS011;18821;44.800;10.326;2022-11-25T01:59:14;18.73;;;10.70;;
32347;SDS011;18821;44.800;10.326;2022-11-25T02:01:42;27.33;;;9.93;;
32347;SDS011;18821;44.800;10.326;2022-11-25T02:04:08;16.95;;;9.90;;
32347;SDS011;18821;44.800;10.326;2022-11-25T02:06:39;16.50;;;9.25;;
32347;SDS011;18821;44.800;10.326;2022-11-25T02:11:39;13.90;;;7.10;;
32347;SDS011;18821;44.800;10.326;2022-11-25T02:14:08;13.02;;;6.53;;
32347;SDS011;18821;44.800;10.326;2022-11-25T02:16:34;14.18;;;6.72;;
32347;SDS011;18821;44.800;10.326;2022-11-25T02:19:01;12.40;;;6.68;;
32347;SDS011;18821;44.800;10.326;2022-11-25T02:21:38;17.02;;;7.40;;
32347;SDS011;18821;44.800;10.326;2022-11-25T02:24:17;12.63;;;6.38;;
32347;SDS011;18821;44.800;10.326;2022-11-25T02:26:59;11.30;;;5.60;;
32347;SDS011;18821;44.800;10.326;2022-11-25T02:29:26;14.75;;;7.63;;
32347;SDS011;18821;44.800;10.326;2022-11-25T02:31:53;11.80;;;5.82;;
32347;SDS011;18821;44.800;10.326;2022-11-25T02:34:20;14.40;;;7.32;;
32347;SDS011;18821;44.800;10.326;2022-11-25T02:36:49;15.00;;;8.70;;
32347;SDS011;18821;44.800;10.326;2022-11-25T02:39:17;16.35;;;9.25;;
32347;SDS011;18821;44.800;10.326;2022-11-25T02:41:51;18.73;;;9.77;;
32347;SDS011;18821;44.800;10.326;2022-11-25T02:44:20;29.17;;;12.38;;
32347;SDS011;18821;44.800;10.326;2022-11-25T02:46:46;22.63;;;11.75;;
32347;SDS011;18821;44.800;10.326;2022-11-25T02:49:12;24.08;;;12.88;;
32347;SDS011;18821;44.800;10.326;2022-11-25T02:51:41;27.45;;;14.23;;
32347;SDS011;18821;44.800;10.326;2022-11-25T02:54:11;26.85;;;14.32;;
32347;SDS011;18821;44.800;10.326;2022-11-25T02:56:38;23.88;;;14.57;;
32347;SDS011;18821;44.800;10.326;2022-11-25T02:59:04;32.33;;;14.98;;
32347;SDS011;18821;44.800;10.326;2022-11-25T03:01:31;32.00;;;16.35;;
32347;SDS011;18821;44.800;10.326;2022-11-25T03:03:59;28.10;;;14.80;;
32347;SDS011;18821;44.800;10.326;2022-11-25T03:06:26;26.85;;;14.38;;
32347;SDS011;18821;44.800;10.326;2022-11-25T03:08:54;29.20;;;13.40;;
32347;SDS011;18821;44.800;10.326;2022-11-25T03:11:20;17.27;;;9.77;;
32347;SDS011;18821;44.800;10.326;2022-11-25T03:14:10;21.08;;;10.50;;
32347;SDS011;18821;44.800;10.326;2022-11-25T03:16:36;18.20;;;10.02;;
32347;SDS011;18821;44.800;10.326;2022-11-25T03:19:02;18.55;;;10.93;;
32347;SDS011;18821;44.800;10.326;2022-11-25T03:21:28;19.17;;;9.95;;
32347;SDS011;18821;44.800;10.326;2022-11-25T03:23:55;20.85;;;10.02;;
32347;SDS011;18821;44.800;10.326;2022-11-25T03:26:21;17.30;;;9.45;;
32347;SDS011;18821;44.800;10.326;2022-11-25T03:28:47;25.33;;;9.10;;
32347;SDS011;18821;44.800;10.326;2022-11-25T03:31:14;15.93;;;8.23;;
32347;SDS011;18821;44.800;10.326;2022-11-25T03:33:42;15.60;;;7.85;;
32347;SDS011;18821;44.800;10.326;2022-11-25T03:36:08;13.82;;;7.95;;
32347;SDS011;18821;44.800;10.326;2022-11-25T03:38:34;16.75;;;8.57;;
32347;SDS011;18821;44.800;10.326;2022-11-25T03:41:00;19.80;;;8.82;;
32347;SDS011;18821;44.800;10.326;2022-11-25T03:43:26;15.75;;;8.80;;
32347;SDS011;18821;44.800;10.326;2022-11-25T03:45:53;19.85;;;9.57;;
32347;SDS011;18821;44.800;10.326;2022-11-25T03:48:21;16.30;;;8.10;;
32347;SDS011;18821;44.800;10.326;2022-11-25T03:50:48;15.00;;;8.95;;
32347;SDS011;18821;44.800;10.326;2022-11-25T03:53:14;14.45;;;9.13;;
32347;SDS011;18821;44.800;10.326;2022-11-25T03:55:41;17.33;;;7.38;;
32347;SDS011;18821;44.800;10.326;2022-11-25T03:58:08;16.25;;;8.13;;
32347;SDS011;18821;44.800;10.326;2022-11-25T04:00:34;13.63;;;7.55;;
32347;SDS011;18821;44.800;10.326;2022-11-25T04:03:02;13.52;;;7.32;;
32347;SDS011;18821;44.800;10.326;2022-11-25T04:05:30;12.10;;;7.20;;
32347;SDS011;18821;44.800;10.326;2022-11-25T04:08:00;16.92;;;7.95;;
32347;SDS011;18821;44.800;10.326;2022-11-25T04:10:26;17.30;;;8.00;;
32347;SDS011;18821;44.800;10.326;2022-11-25T04:12:53;14.35;;;7.78;;
32347;SDS011;18821;44.800;10.326;2022-11-25T04:15:27;16.15;;;8.63;;
32347;SDS011;18821;44.800;10.326;2022-11-25T04:17:56;12.68;;;7.78;;
32347;SDS011;18821;44.800;10.326;2022-11-25T04:20:23;12.82;;;8.38;;
32347;SDS011;18821;44.800;10.326;2022-11-25T04:22:55;14.52;;;7.45;;
32347;SDS011;18821;44.800;10.326;2022-11-25T04:25:21;21.40;;;9.57;;
32347;SDS011;18821;44.800;10.326;2022-11-25T04:27:47;19.33;;;9.25;;
32347;SDS011;18821;44.800;10.326;2022-11-25T04:30:17;15.65;;;7.57;;
32347;SDS011;18821;44.800;10.326;2022-11-25T04:32:43;20.50;;;9.73;;
32347;SDS011;18821;44.800;10.326;2022-11-25T04:35:12;14.48;;;8.30;;
32347;SDS011;18821;44.800;10.326;2022-11-25T04:37:42;15.90;;;8.80;;
32347;SDS011;18821;44.800;10.326;2022-11-25T04:40:08;16.58;;;8.85;;
32347;SDS011;18821;44.800;10.326;2022-11-25T04:42:34;15.68;;;8.93;;
32347;SDS011;18821;44.800;10.326;2022-11-25T04:45:08;18.63;;;9.30;;
32347;SDS011;18821;44.800;10.326;2022-11-25T04:47:35;17.45;;;9.02;;
32347;SDS011;18821;44.800;10.326;2022-11-25T04:50:06;19.45;;;10.95;;
32347;SDS011;18821;44.800;10.326;2022-11-25T04:52:46;22.38;;;10.35;;
32347;SDS011;18821;44.800;10.326;2022-11-25T04:55:12;18.95;;;8.90;;
32347;SDS011;18821;44.800;10.326;2022-11-25T04:57:38;18.10;;;8.88;;
32347;SDS011;18821;44.800;10.326;2022-11-25T05:00:05;13.35;;;8.23;;
32347;SDS011;18821;44.800;10.326;2022-11-25T05:02:33;15.90;;;8.63;;
32347;SDS011;18821;44.800;10.326;2022-11-25T05:05:07;21.35;;;9.43;;
32347;SDS011;18821;44.800;10.326;2022-11-25T05:07:34;15.23;;;9.75;;
32347;SDS011;18821;44.800;10.326;2022-11-25T05:10:00;21.95;;;9.40;;
32347;SDS011;18821;44.800;10.326;2022-11-25T05:12:39;21.45;;;9.38;;
32347;SDS011;18821;44.800;10.326;2022-11-25T05:15:09;17.67;;;10.38;;
32347;SDS011;18821;44.800;10.326;2022-11-25T05:17:38;16.83;;;9.40;;
32347;SDS011;18821;44.800;10.326;2022-11-25T05:20:04;15.90;;;9.13;;
32347;SDS011;18821;44.800;10.326;2022-11-25T05:22:33;20.52;;;9.90;;
32347;SDS011;18821;44.800;10.326;2022-11-25T05:25:02;21.88;;;8.65;;
32347;SDS011;18821;44.800;10.326;2022-11-25T05:27:32;15.35;;;8.55;;
32347;SDS011;18821;44.800;10.326;2022-11-25T05:30:05;15.88;;;9.52;;
32347;SDS011;18821;44.800;10.326;2022-11-25T05:32:31;17.73;;;9.77;;
32347;SDS011;18821;44.800;10.326;2022-11-25T05:34:59;15.05;;;8.55;;
32347;SDS011;18821;44.800;10.326;2022-11-25T05:37:26;15.98;;;8.55;;
32347;SDS011;18821;44.800;10.326;2022-11-25T05:39:59;13.85;;;7.93;;
32347;SDS011;18821;44.800;10.326;2022-11-25T05:42:48;19.77;;;8.75;;
32347;SDS011;18821;44.800;10.326;2022-11-25T05:45:16;14.32;;;8.10;;
32347;SDS011;18821;44.800;10.326;2022-11-25T05:47:42;13.98;;;8.27;;
32347;SDS011;18821;44.800;10.326;2022-11-25T05:50:09;19.73;;;8.25;;
32347;SDS011;18821;44.800;10.326;2022-11-25T05:52:35;13.65;;;7.93;;
32347;SDS011;18821;44.800;10.326;2022-11-25T05:55:01;14.98;;;8.13;;
32347;SDS011;18821;44.800;10.326;2022-11-25T05:57:28;13.50;;;8.45;;
32347;SDS011;18821;44.800;10.326;2022-11-25T06:00:02;13.57;;;7.95;;
32347;SDS011;18821;44.800;10.326;2022-11-25T06:02:43;20.52;;;8.68;;
32347;SDS011;18821;44.800;10.326;2022-11-25T06:05:14;13.57;;;8.35;;
32347;SDS011;18821;44.800;10.326;2022-11-25T06:07:40;23.45;;;10.05;;
32347;SDS011;18821;44.800;10.326;2022-11-25T06:10:06;17.55;;;9.43;;
32347;SDS011;18821;44.800;10.326;2022-11-25T06:12:35;15.77;;;8.25;;
32347;SDS011;18821;44.800;10.326;2022-11-25T06:15:01;18.17;;;9.50;;
32347;SDS011;18821;44.800;10.326;2022-11-25T06:17:27;17.83;;;8.88;;
32347;SDS011;18821;44.800;10.326;2022-11-25T06:20:02;19.38;;;8.73;;
32347;SDS011;18821;44.800;10.326;2022-11-25T06:22:30;16.73;;;8.45;;
32347;SDS011;18821;44.800;10.326;2022-11-25T06:24:56;17.98;;;9.07;;
32347;SDS011;18821;44.800;10.326;2022-11-25T06:27:22;25.52;;;10.55;;
32347;SDS011;18821;44.800;10.326;2022-11-25T06:29:48;24.27;;;12.38;;
32347;SDS011;18821;44.800;10.326;2022-11-25T06:32:14;19.15;;;11.85;;
32347;SDS011;18821;44.800;10.326;2022-11-25T06:34:43;26.40;;;13.00;;
32347;SDS011;18821;44.800;10.326;2022-11-25T06:37:32;23.42;;;13.32;;
32347;SDS011;18821;44.800;10.326;2022-11-25T06:39:58;26.98;;;14.30;;
32347;SDS011;18821;44.800;10.326;2022-11-25T06:42:24;26.90;;;13.45;;
32347;SDS011;18821;44.800;10.326;2022-11-25T06:44:50;26.95;;;12.98;;
32347;SDS011;18821;44.800;10.326;2022-11-25T06:47:16;33.63;;;14.15;;
32347;SDS011;18821;44.800;10.326;2022-11-25T06:49:42;27.40;;;13.10;;
32347;SDS011;18821;44.800;10.326;2022-11-25T06:52:07;29.05;;;12.68;;
32347;SDS011;18821;44.800;10.326;2022-11-25T06:54:33;26.70;;;12.05;;
32347;SDS011;18821;44.800;10.326;2022-11-25T06:57:08;23.50;;;10.85;;
32347;SDS011;18821;44.800;10.326;2022-11-25T06:59:36;19.85;;;11.18;;
32347;SDS011;18821;44.800;10.326;2022-11-25T07:02:02;26.42;;;13.90;;
32347;SDS011;18821;44.800;10.326;2022-11-25T07:04:29;20.35;;;11.57;;
32347;SDS011;18821;44.800;10.326;2022-11-25T07:06:55;28.67;;;14.23;;
32347;SDS011;18821;44.800;10.326;2022-11-25T07:09:21;29.05;;;14.70;;
32347;SDS011;18821;44.800;10.326;2022-11-25T07:11:48;28.33;;;16.13;;
32347;SDS011;18821;44.800;10.326;2022-11-25T07:14:14;32.22;;;18.92;;
32347;SDS011;18821;44.800;10.326;2022-11-25T07:16:42;32.42;;;18.17;;
32347;SDS011;18821;44.800;10.326;2022-11-25T07:19:10;24.75;;;15.00;;
32347;SDS011;18821;44.800;10.326;2022-11-25T07:21:37;32.03;;;17.42;;
32347;SDS011;18821;44.800;10.326;2022-11-25T07:24:04;27.73;;;16.40;;
32347;SDS011;18821;44.800;10.326;2022-11-25T07:26:32;26.08;;;15.18;;
32347;SDS011;18821;44.800;10.326;2022-11-25T07:29:02;24.50;;;14.00;;
32347;SDS011;18821;44.800;10.326;2022-11-25T07:31:30;26.70;;;13.63;;
32347;SDS011;18821;44.800;10.326;2022-11-25T07:34:00;24.63;;;13.07;;
32347;SDS011;18821;44.800;10.326;2022-11-25T07:36:32;29.10;;;14.23;;
32347;SDS011;18821;44.800;10.326;2022-11-25T07:39:00;27.20;;;15.27;;
32347;SDS011;18821;44.800;10.326;2022-11-25T07:41:29;28.08;;;15.13;;
32347;SDS011;18821;44.800;10.326;2022-11-25T07:43:56;24.88;;;12.63;;
32347;SDS011;18821;44.800;10.326;2022-11-25T07:46:28;20.65;;;11.38;;
32347;SDS011;18821;44.800;10.326;2022-11-25T07:48:57;32.03;;;12.85;;
32347;SDS011;18821;44.800;10.326;2022-11-25T07:53:58;25.23;;;13.80;;
32347;SDS011;18821;44.800;10.326;2022-11-25T07:56:26;25.50;;;14.30;;
32347;SDS011;18821;44.800;10.326;2022-11-25T07:58:53;21.80;;;12.27;;
32347;SDS011;18821;44.800;10.326;2022-11-25T08:01:20;28.60;;;15.88;;
32347;SDS011;18821;44.800;10.326;2022-11-25T08:03:47;34.53;;;18.63;;
32347;SDS011;18821;44.800;10.326;2022-11-25T08:06:15;44.95;;;22.60;;
32347;SDS011;18821;44.800;10.326;2022-11-25T08:08:43;51.50;;;24.48;;
32347;SDS011;18821;44.800;10.326;2022-11-25T08:11:10;47.70;;;26.98;;
32347;SDS011;18821;44.800;10.326;2022-11-25T08:16:13;50.53;;;26.88;;
32347;SDS011;18821;44.800;10.326;2022-11-25T08:18:40;76.93;;;32.60;;
32347;SDS011;18821;44.800;10.326;2022-11-25T08:21:07;75.13;;;31.58;;
32347;SDS011;18821;44.800;10.326;2022-11-25T08:23:36;65.65;;;27.35;;
32347;SDS011;18821;44.800;10.326;2022-11-25T08:26:03;63.75;;;30.67;;
32347;SDS011;18821;44.800;10.326;2022-11-25T08:28:30;64.40;;;29.02;;
32347;SDS011;18821;44.800;10.326;2022-11-25T08:31:00;60.80;;;28.85;;
32347;SDS011;18821;44.800;10.326;2022-11-25T08:33:30;51.15;;;27.40;;
32347;SDS011;18821;44.800;10.326;2022-11-25T08:35:56;46.63;;;25.80;;
32347;SDS011;18821;44.800;10.326;2022-11-25T08:38:22;50.72;;;26.67;;
32347;SDS011;18821;44.800;10.326;2022-11-25T08:40:48;42.45;;;26.77;;
32347;SDS011;18821;44.800;10.326;2022-11-25T08:43:14;50.97;;;28.40;;
32347;SDS011;18821;44.800;10.326;2022-11-25T08:45:40;51.22;;;26.38;;
32347;SDS011;18821;44.800;10.326;2022-11-25T08:48:06;45.58;;;25.50;;
32347;SDS011;18821;44.800;10.326;2022-11-25T08:50:32;47.65;;;24.17;;
32347;SDS011;18821;44.800;10.326;2022-11-25T08:52:58;43.42;;;24.95;;
32347;SDS011;18821;44.800;10.326;2022-11-25T08:55:26;44.50;;;23.25;;
32347;SDS011;18821;44.800;10.326;2022-11-25T08:57:52;44.97;;;24.98;;
32347;SDS011;18821;44.800;10.326;2022-11-25T09:00:19;38.53;;;21.00;;
32347;SDS011;18821;44.800;10.326;2022-11-25T09:02:46;36.65;;;20.85;;
32347;SDS011;18821;44.800;10.326;2022-11-25T09:05:13;32.97;;;19.30;;
32347;SDS011;18821;44.800;10.326;2022-11-25T09:07:41;34.08;;;18.23;;
32347;SDS011;18821;44.800;10.326;2022-11-25T09:10:08;37.75;;;18.10;;
32347;SDS011;18821;44.800;10.326;2022-11-25T09:16:51;43.78;;;18.58;;
32347;SDS011;18821;44.800;10.326;2022-11-25T09:19:18;38.65;;;19.27;;
32347;SDS011;18821;44.800;10.326;2022-11-25T09:21:44;37.85;;;22.13;;
32347;SDS011;18821;44.800;10.326;2022-11-25T09:24:10;46.45;;;22.10;;
32347;SDS011;18821;44.800;10.326;2022-11-25T09:26:36;43.38;;;21.35;;
32347;SDS011;18821;44.800;10.326;2022-11-25T09:29:05;48.88;;;24.58;;
32347;SDS011;18821;44.800;10.326;2022-11-25T09:31:32;40.72;;;23.60;;
32347;SDS011;18821;44.800;10.326;2022-11-25T09:33:58;43.70;;;22.83;;
32347;SDS011;18821;44.800;10.326;2022-11-25T09:36:24;50.35;;;24.50;;
32347;SDS011;18821;44.800;10.326;2022-11-25T09:38:50;41.90;;;25.58;;
32347;SDS011;18821;44.800;10.326;2022-11-25T09:55:45;41.85;;;26.27;;
32347;SDS011;18821;44.800;10.326;2022-11-25T09:58:31;44.60;;;25.17;;
32347;SDS011;18821;44.800;10.326;2022-11-25T10:01:03;44.10;;;25.77;;
32347;SDS011;18821;44.800;10.326;2022-11-25T10:08:45;39.42;;;23.33;;
32347;SDS011;18821;44.800;10.326;2022-11-25T10:14:19;39.00;;;22.92;;
32347;SDS011;18821;44.800;10.326;2022-11-25T10:19:40;43.97;;;24.27;;
32347;SDS011;18821;44.800;10.326;2022-11-25T10:24:50;45.42;;;23.40;;
32347;SDS011;18821;44.800;10.326;2022-11-25T10:27:23;44.53;;;25.27;;
32347;SDS011;18821;44.800;10.326;2022-11-25T10:30:06;48.10;;;26.85;;
32347;SDS011;18821;44.800;10.326;2022-11-25T10:32:42;40.03;;;25.52;;
32347;SDS011;18821;44.800;10.326;2022-11-25T10:35:19;41.60;;;24.63;;
32347;SDS011;18821;44.800;10.326;2022-11-25T10:37:52;41.55;;;27.27;;
32347;SDS011;18821;44.800;10.326;2022-11-25T10:40:20;44.80;;;26.15;;
32347;SDS011;18821;44.800;10.326;2022-11-25T10:42:47;46.80;;;27.35;;
32347;SDS011;18821;44.800;10.326;2022-11-25T10:45:13;49.10;;;28.75;;
32347;SDS011;18821;44.800;10.326;2022-11-25T10:53:38;46.25;;;30.20;;
32347;SDS011;18821;44.800;10.326;2022-11-25T10:56:03;62.15;;;32.67;;
32347;SDS011;18821;44.800;10.326;2022-11-25T10:58:41;47.42;;;32.08;;
32347;SDS011;18821;44.800;10.326;2022-11-25T11:03:55;57.63;;;34.13;;
32347;SDS011;18821;44.800;10.326;2022-11-25T11:06:38;56.50;;;34.63;;
32347;SDS011;18821;44.800;10.326;2022-11-25T11:14:52;61.50;;;35.72;;
32347;SDS011;18821;44.800;10.326;2022-11-25T11:17:29;57.20;;;33.80;;
32347;SDS011;18821;44.800;10.326;2022-11-25T11:20:43;57.00;;;34.42;;
32347;SDS011;18821;44.800;10.326;2022-11-25T11:22:53;57.55;;;33.97;;
32347;SDS011;18821;44.800;10.326;2022-11-25T11:25:30;53.25;;;34.58;;
32347;SDS011;18821;44.800;10.326;2022-11-25T11:27:59;56.20;;;33.35;;
32347;SDS011;18821;44.800;10.326;2022-11-25T11:30:27;54.42;;;35.08;;
32347;SDS011;18821;44.800;10.326;2022-11-25T11:35:37;52.00;;;33.90;;
32347;SDS011;18821;44.800;10.326;2022-11-25T11:41:04;54.75;;;34.38;;
32347;SDS011;18821;44.800;10.326;2022-11-25T11:46:34;54.83;;;33.20;;
32347;SDS011;18821;44.800;10.326;2022-11-25T11:49:16;59.38;;;38.03;;
32347;SDS011;18821;44.800;10.326;2022-11-25T11:51:58;61.92;;;37.47;;
32347;SDS011;18821;44.800;10.326;2022-11-25T11:59:44;53.50;;;35.45;;
32347;SDS011;18821;44.800;10.326;2022-11-25T12:05:04;58.17;;;36.78;;
32347;SDS011;18821;44.800;10.326;2022-11-25T12:10:25;58.17;;;38.45;;
32347;SDS011;18821;44.800;10.326;2022-11-25T12:15:57;60.40;;;36.63;;
32347;SDS011;18821;44.800;10.326;2022-11-25T12:26:24;73.30;;;43.92;;
32347;SDS011;18821;44.800;10.326;2022-11-25T12:29:17;70.55;;;40.50;;
32347;SDS011;18821;44.800;10.326;2022-11-25T12:31:52;71.65;;;40.85;;
32347;SDS011;18821;44.800;10.326;2022-11-25T12:34:57;61.47;;;39.35;;
32347;SDS011;18821;44.800;10.326;2022-11-25T12:37:26;70.97;;;40.05;;
32347;SDS011;18821;44.800;10.326;2022-11-25T12:40:06;67.45;;;40.42;;
32347;SDS011;18821;44.800;10.326;2022-11-25T12:42:43;71.93;;;43.03;;
32347;SDS011;18821;44.800;10.326;2022-11-25T12:45:22;73.18;;;42.30;;
32347;SDS011;18821;44.800;10.326;2022-11-25T12:47:49;79.93;;;44.92;;
32347;SDS011;18821;44.800;10.326;2022-11-25T12:53:49;76.32;;;45.38;;
32347;SDS011;18821;44.800;10.326;2022-11-25T12:56:16;79.50;;;46.95;;
32347;SDS011;18821;44.800;10.326;2022-11-25T12:58:52;78.72;;;49.10;;
32347;SDS011;18821;44.800;10.326;2022-11-25T13:01:40;81.55;;;49.67;;
32347;SDS011;18821;44.800;10.326;2022-11-25T13:13:16;90.32;;;52.72;;
32347;SDS011;18821;44.800;10.326;2022-11-25T13:15:53;86.90;;;51.67;;
32347;SDS011;18821;44.800;10.326;2022-11-25T13:18:21;84.20;;;51.95;;
32347;SDS011;18821;44.800;10.326;2022-11-25T13:20:51;87.20;;;53.00;;
32347;SDS011;18821;44.800;10.326;2022-11-25T13:25:47;83.03;;;50.92;;
32347;SDS011;18821;44.800;10.326;2022-11-25T13:30:53;80.57;;;49.33;;
32347;SDS011;18821;44.800;10.326;2022-11-25T13:35:49;88.47;;;52.30;;
32347;SDS011;18821;44.800;10.326;2022-11-25T13:40:55;88.18;;;54.00;;
32347;SDS011;18821;44.800;10.326;2022-11-25T13:43:49;90.07;;;53.33;;
32347;SDS011;18821;44.800;10.326;2022-11-25T13:49:19;85.53;;;50.80;;
32347;SDS011;18821;44.800;10.326;2022-11-25T13:51:48;87.90;;;53.97;;
32347;SDS011;18821;44.800;10.326;2022-11-25T13:54:20;86.25;;;52.15;;
32347;SDS011;18821;44.800;10.326;2022-11-25T14:10:44;90.88;;;54.08;;
32347;SDS011;18821;44.800;10.326;2022-11-25T14:24:27;82.15;;;50.28;;
32347;SDS011;18821;44.800;10.326;2022-11-25T14:27:13;83.78;;;50.42;;
32347;SDS011;18821;44.800;10.326;2022-11-25T14:29:51;79.60;;;48.70;;
32347;SDS011;18821;44.800;10.326;2022-11-25T14:35:04;88.10;;;52.92;;
32347;SDS011;18821;44.800;10.326;2022-11-25T14:40:30;88.07;;;52.72;;
32347;SDS011;18821;44.800;10.326;2022-11-25T14:43:13;82.60;;;50.22;;
32347;SDS011;18821;44.800;10.326;2022-11-25T14:45:45;84.57;;;51.60;;
32347;SDS011;18821;44.800;10.326;2022-11-25T14:48:18;89.03;;;52.58;;
32347;SDS011;18821;44.800;10.326;2022-11-25T14:51:02;89.93;;;52.42;;
32347;SDS011;18821;44.800;10.326;2022-11-25T14:53:38;82.07;;;51.17;;
32347;SDS011;18821;44.800;10.326;2022-11-25T14:56:06;79.13;;;48.75;;
32347;SDS011;18821;44.800;10.326;2022-11-25T14:58:33;81.03;;;51.13;;
32347;SDS011;18821;44.800;10.326;2022-11-25T15:01:00;84.22;;;51.85;;
32347;SDS011;18821;44.800;10.326;2022-11-25T15:03:30;82.32;;;49.55;;
32347;SDS011;18821;44.800;10.326;2022-11-25T15:06:04;80.82;;;47.30;;
32347;SDS011;18821;44.800;10.326;2022-11-25T15:08:41;75.93;;;47.38;;
32347;SDS011;18821;44.800;10.326;2022-11-25T15:11:16;78.43;;;46.88;;
32347;SDS011;18821;44.800;10.326;2022-11-25T15:13:44;80.82;;;47.20;;
32347;SDS011;18821;44.800;10.326;2022-11-25T15:16:14;87.28;;;47.92;;
32347;SDS011;18821;44.800;10.326;2022-11-25T15:18:49;70.35;;;44.67;;
32347;SDS011;18821;44.800;10.326;2022-11-25T15:21:26;73.45;;;45.80;;
32347;SDS011;18821;44.800;10.326;2022-11-25T15:23:55;79.43;;;46.42;;
32347;SDS011;18821;44.800;10.326;2022-11-25T15:26:23;85.30;;;51.88;;
32347;SDS011;18821;44.800;10.326;2022-11-25T15:28:54;86.95;;;51.92;;
32347;SDS011;18821;44.800;10.326;2022-11-25T15:31:24;95.45;;;57.45;;
32347;SDS011;18821;44.800;10.326;2022-11-25T15:33:56;91.18;;;56.22;;
32347;SDS011;18821;44.800;10.326;2022-11-25T15:36:24;91.90;;;55.53;;
32347;SDS011;18821;44.800;10.326;2022-11-25T15:38:51;90.47;;;55.38;;
32347;SDS011;18821;44.800;10.326;2022-11-25T15:41:19;94.22;;;55.30;;
32347;SDS011;18821;44.800;10.326;2022-11-25T15:44:06;90.88;;;54.20;;
32347;SDS011;18821;44.800;10.326;2022-11-25T15:46:40;98.40;;;57.72;;
32347;SDS011;18821;44.800;10.326;2022-11-25T15:49:17;94.75;;;55.97;;
32347;SDS011;18821;44.800;10.326;2022-11-25T15:51:47;93.72;;;56.30;;
32347;SDS011;18821;44.800;10.326;2022-11-25T15:54:19;92.32;;;54.63;;
32347;SDS011;18821;44.800;10.326;2022-11-25T15:56:49;93.45;;;54.30;;
32347;SDS011;18821;44.800;10.326;2022-11-25T15:59:37;95.18;;;57.58;;
32347;SDS011;18821;44.800;10.326;2022-11-25T16:05:12;98.25;;;57.47;;
32347;SDS011;18821;44.800;10.326;2022-11-25T16:10:18;107.35;;;58.67;;
32347;SDS011;18821;44.800;10.326;2022-11-25T16:13:13;107.43;;;60.05;;
32347;SDS011;18821;44.800;10.326;2022-11-25T16:21:06;114.85;;;62.20;;
32347;SDS011;18821;44.800;10.326;2022-11-25T16:23:40;114.82;;;61.08;;
32347;SDS011;18821;44.800;10.326;2022-11-25T16:28:36;113.13;;;64.70;;
32347;SDS011;18821;44.800;10.326;2022-11-25T16:31:03;112.38;;;66.32;;
32347;SDS011;18821;44.800;10.326;2022-11-25T16:33:31;111.70;;;65.53;;
32347;SDS011;18821;44.800;10.326;2022-11-25T16:35:57;111.00;;;65.00;;
32347;SDS011;18821;44.800;10.326;2022-11-25T16:38:23;127.82;;;70.07;;
32347;SDS011;18821;44.800;10.326;2022-11-25T16:40:51;107.03;;;63.60;;
32347;SDS011;18821;44.800;10.326;2022-11-25T16:43:19;111.80;;;64.18;;
32347;SDS011;18821;44.800;10.326;2022-11-25T16:45:49;115.35;;;65.80;;
32347;SDS011;18821;44.800;10.326;2022-11-25T16:48:18;121.75;;;66.00;;
32347;SDS011;18821;44.800;10.326;2022-11-25T16:50:46;117.72;;;65.05;;
32347;SDS011;18821;44.800;10.326;2022-11-25T16:53:13;124.63;;;66.90;;
32347;SDS011;18821;44.800;10.326;2022-11-25T16:55:40;113.50;;;63.40;;
32347;SDS011;18821;44.800;10.326;2022-11-25T16:58:27;112.80;;;63.92;;
32347;SDS011;18821;44.800;10.326;2022-11-25T17:00:54;111.68;;;64.82;;
32347;SDS011;18821;44.800;10.326;2022-11-25T17:03:21;116.18;;;65.68;;
32347;SDS011;18821;44.800;10.326;2022-11-25T17:05:53;118.20;;;63.92;;